GLD1440 SBSI-SWJN
Flight info
| Callsign | GLD1440 |
|---|---|
| Flight time | 1h 4m |
| Altitude | 8500 |
| Route | 1138S05604W 1130S05640W 1132S05701W 1133S05721W 1129S05751W 1132S05815W 1132S05822W |
| Aircraft | BE58/L-SDFGIRY/S |
Departure
| Time | 2026-04-26 17:48 |
|---|---|
| Airport | Presidente João Batista Figueiredo Airport (SBSI) |
Arrival
| Time | 2026-04-26 18:52 |
|---|---|
| Airport | Juína Airport (SWJN) |
| Time | Latitude | Longitude | Altitude | Speed | Heading |
|---|---|---|---|---|---|
| 2026-04-26 17:21 | -11.87956 | -55.58281 | 1242 ft | 0 kts | 14° |
| 2026-04-26 17:40 | -11.87942 | -55.58278 | 1252 ft | 6 kts | 0° |
| 2026-04-26 17:40 | -11.87909 | -55.58308 | 1242 ft | 9 kts | 17° |
| 2026-04-26 17:41 | -11.87852 | -55.58313 | 1242 ft | 7 kts | 288° |
| 2026-04-26 17:41 | -11.87851 | -55.58316 | 1241 ft | 0 kts | 282° |
| 2026-04-26 17:44 | -11.87850 | -55.58322 | 1241 ft | 4 kts | 281° |
| 2026-04-26 17:45 | -11.87840 | -55.58362 | 1246 ft | 0 kts | 285° |
| 2026-04-26 17:46 | -11.87835 | -55.58380 | 1242 ft | 8 kts | 289° |
| 2026-04-26 17:46 | -11.87829 | -55.58447 | 1252 ft | 5 kts | 200° |
| 2026-04-26 17:47 | -11.87830 | -55.58448 | 1252 ft | 1 kts | 195° |
| 2026-04-26 17:47 | -11.87943 | -55.58479 | 1243 ft | 54 kts | 195° |
| 2026-04-26 17:47 | -11.88795 | -55.58698 | 1263 ft | 130 kts | 194° |
| 2026-04-26 17:47 | -11.89715 | -55.59002 | 1381 ft | 149 kts | 194° |
| 2026-04-26 17:48 | -11.90721 | -55.59310 | 1620 ft | 152 kts | 193° |
| 2026-04-26 17:48 | -11.91763 | -55.59339 | 1836 ft | 153 kts | 159° |
| 2026-04-26 17:48 | -11.92581 | -55.58693 | 1997 ft | 150 kts | 120° |
| 2026-04-26 17:48 | -11.92784 | -55.57671 | 2084 ft | 155 kts | 78° |
| 2026-04-26 17:49 | -11.92240 | -55.56750 | 2222 ft | 154 kts | 41° |
| 2026-04-26 17:49 | -11.91260 | -55.56281 | 2480 ft | 152 kts | 17° |
| 2026-04-26 17:49 | -11.90183 | -55.56189 | 2466 ft | 164 kts | 355° |
| 2026-04-26 17:49 | -11.89163 | -55.56725 | 2463 ft | 175 kts | 311° |
| 2026-04-26 17:50 | -11.88734 | -55.57862 | 2622 ft | 171 kts | 282° |
| 2026-04-26 17:50 | -11.88320 | -55.58972 | 2819 ft | 165 kts | 301° |
| 2026-04-26 17:50 | -11.87769 | -55.59989 | 3010 ft | 167 kts | 299° |
| 2026-04-26 17:50 | -11.87254 | -55.61026 | 3174 ft | 160 kts | 298° |
| 2026-04-26 17:51 | -11.86753 | -55.62022 | 3361 ft | 157 kts | 299° |
| 2026-04-26 17:51 | -11.86225 | -55.63049 | 3552 ft | 171 kts | 299° |
| 2026-04-26 17:51 | -11.85662 | -55.64162 | 3742 ft | 180 kts | 300° |
| 2026-04-26 17:51 | -11.85064 | -55.65321 | 3938 ft | 186 kts | 299° |
| 2026-04-26 17:52 | -11.84464 | -55.66486 | 4160 ft | 186 kts | 299° |
| 2026-04-26 17:52 | -11.83852 | -55.67683 | 4344 ft | 189 kts | 299° |
| 2026-04-26 17:52 | -11.83243 | -55.68862 | 4530 ft | 187 kts | 300° |
| 2026-04-26 17:52 | -11.82634 | -55.70022 | 4727 ft | 185 kts | 300° |
| 2026-04-26 17:53 | -11.82048 | -55.71189 | 4918 ft | 184 kts | 299° |
| 2026-04-26 17:53 | -11.81455 | -55.72355 | 5109 ft | 187 kts | 300° |
| 2026-04-26 17:53 | -11.80844 | -55.73531 | 5288 ft | 187 kts | 300° |
| 2026-04-26 17:54 | -11.79647 | -55.75870 | 5681 ft | 186 kts | 300° |
| 2026-04-26 17:54 | -11.79043 | -55.77034 | 5884 ft | 185 kts | 300° |
| 2026-04-26 17:54 | -11.78446 | -55.78185 | 6128 ft | 182 kts | 300° |
| 2026-04-26 17:54 | -11.77868 | -55.79312 | 6353 ft | 178 kts | 300° |
| 2026-04-26 17:55 | -11.77286 | -55.80447 | 6552 ft | 181 kts | 300° |
| 2026-04-26 17:55 | -11.76695 | -55.81594 | 6730 ft | 184 kts | 300° |
| 2026-04-26 17:55 | -11.76104 | -55.82744 | 6907 ft | 180 kts | 300° |
| 2026-04-26 17:55 | -11.75533 | -55.83864 | 7089 ft | 176 kts | 299° |
| 2026-04-26 17:56 | -11.74975 | -55.84966 | 7275 ft | 174 kts | 301° |
| 2026-04-26 17:56 | -11.73852 | -55.87119 | 7658 ft | 173 kts | 300° |
| 2026-04-26 17:57 | -11.72745 | -55.89274 | 8019 ft | 168 kts | 300° |
| 2026-04-26 17:57 | -11.72207 | -55.90318 | 8203 ft | 164 kts | 300° |
| 2026-04-26 17:57 | -11.71682 | -55.91340 | 8372 ft | 163 kts | 300° |
| 2026-04-26 17:57 | -11.71142 | -55.92387 | 8380 ft | 170 kts | 300° |
| 2026-04-26 17:58 | -11.69403 | -55.95761 | 8392 ft | 183 kts | 300° |
| 2026-04-26 17:59 | -11.68202 | -55.98098 | 8390 ft | 190 kts | 300° |
| 2026-04-26 17:59 | -11.67576 | -55.99300 | 8396 ft | 194 kts | 301° |
| 2026-04-26 17:59 | -11.66932 | -56.00528 | 8391 ft | 196 kts | 300° |
| 2026-04-26 17:59 | -11.66302 | -56.01763 | 8390 ft | 197 kts | 299° |
| 2026-04-26 18:00 | -11.65686 | -56.03019 | 8383 ft | 199 kts | 299° |
| 2026-04-26 18:00 | -11.65051 | -56.04269 | 8381 ft | 198 kts | 300° |
| 2026-04-26 18:00 | -11.64401 | -56.05513 | 8390 ft | 198 kts | 300° |
| 2026-04-26 18:00 | -11.63770 | -56.06768 | 8388 ft | 202 kts | 294° |
| 2026-04-26 18:01 | -11.63419 | -56.08168 | 8390 ft | 205 kts | 284° |
| 2026-04-26 18:01 | -11.63078 | -56.09591 | 8398 ft | 207 kts | 286° |
| 2026-04-26 18:01 | -11.62731 | -56.11024 | 8383 ft | 207 kts | 285° |
| 2026-04-26 18:01 | -11.62402 | -56.12450 | 8381 ft | 205 kts | 284° |
| 2026-04-26 18:02 | -11.62078 | -56.13837 | 8379 ft | 204 kts | 284° |
| 2026-04-26 18:02 | -11.61862 | -56.14792 | 8380 ft | 203 kts | 284° |
| 2026-04-26 18:02 | -11.61439 | -56.16643 | 8381 ft | 202 kts | 284° |
| 2026-04-26 18:02 | -11.61119 | -56.18038 | 8382 ft | 203 kts | 285° |
| 2026-04-26 18:03 | -11.60778 | -56.19440 | 8381 ft | 204 kts | 285° |
| 2026-04-26 18:03 | -11.60450 | -56.20850 | 8381 ft | 204 kts | 284° |
| 2026-04-26 18:03 | -11.60127 | -56.22253 | 8380 ft | 203 kts | 285° |
| 2026-04-26 18:03 | -11.59802 | -56.23654 | 8380 ft | 202 kts | 285° |
| 2026-04-26 18:04 | -11.59478 | -56.25045 | 8380 ft | 201 kts | 285° |
| 2026-04-26 18:04 | -11.59155 | -56.26425 | 8376 ft | 200 kts | 285° |
| 2026-04-26 18:04 | -11.58833 | -56.27803 | 8372 ft | 200 kts | 285° |
| 2026-04-26 18:05 | -11.58189 | -56.30566 | 8373 ft | 202 kts | 285° |
| 2026-04-26 18:05 | -11.57856 | -56.31953 | 8372 ft | 201 kts | 285° |
| 2026-04-26 18:05 | -11.57547 | -56.33321 | 8372 ft | 200 kts | 284° |
| 2026-04-26 18:05 | -11.57229 | -56.34703 | 8384 ft | 201 kts | 285° |
| 2026-04-26 18:06 | -11.56900 | -56.36098 | 8384 ft | 205 kts | 285° |
| 2026-04-26 18:06 | -11.56564 | -56.37528 | 8386 ft | 208 kts | 285° |
| 2026-04-26 18:06 | -11.56233 | -56.38952 | 8382 ft | 205 kts | 285° |
| 2026-04-26 18:06 | -11.55903 | -56.40361 | 8375 ft | 203 kts | 285° |
| 2026-04-26 18:07 | -11.55578 | -56.41753 | 8387 ft | 202 kts | 285° |
| 2026-04-26 18:07 | -11.55247 | -56.43166 | 8387 ft | 207 kts | 285° |
| 2026-04-26 18:07 | -11.54914 | -56.44594 | 8384 ft | 206 kts | 284° |
| 2026-04-26 18:07 | -11.54695 | -56.45537 | 8385 ft | 206 kts | 285° |
| 2026-04-26 18:08 | -11.54252 | -56.47431 | 8383 ft | 203 kts | 285° |
| 2026-04-26 18:08 | -11.53921 | -56.48832 | 8378 ft | 203 kts | 285° |
| 2026-04-26 18:08 | -11.53594 | -56.50239 | 8381 ft | 204 kts | 285° |
| 2026-04-26 18:08 | -11.53265 | -56.51649 | 8376 ft | 204 kts | 285° |
| 2026-04-26 18:09 | -11.52935 | -56.53061 | 8381 ft | 206 kts | 285° |
| 2026-04-26 18:09 | -11.52601 | -56.54473 | 8374 ft | 203 kts | 285° |
| 2026-04-26 18:09 | -11.52271 | -56.55871 | 8374 ft | 203 kts | 285° |
| 2026-04-26 18:09 | -11.51954 | -56.57248 | 8373 ft | 202 kts | 285° |
| 2026-04-26 18:10 | -11.51628 | -56.58643 | 8371 ft | 201 kts | 285° |
| 2026-04-26 18:10 | -11.51300 | -56.60030 | 8374 ft | 202 kts | 285° |
| 2026-04-26 18:10 | -11.50974 | -56.61435 | 8379 ft | 204 kts | 285° |
| 2026-04-26 18:10 | -11.50644 | -56.62836 | 8386 ft | 204 kts | 285° |
| 2026-04-26 18:11 | -11.50306 | -56.64248 | 8381 ft | 206 kts | 285° |
| 2026-04-26 18:11 | -11.49980 | -56.65673 | 8381 ft | 206 kts | 284° |
| 2026-04-26 18:11 | -11.49756 | -56.67117 | 8376 ft | 207 kts | 269° |
| 2026-04-26 18:11 | -11.49935 | -56.68563 | 8375 ft | 204 kts | 263° |
| 2026-04-26 18:12 | -11.50082 | -56.69999 | 8375 ft | 203 kts | 265° |
| 2026-04-26 18:12 | -11.50219 | -56.71428 | 8370 ft | 202 kts | 264° |
| 2026-04-26 18:12 | -11.50370 | -56.72850 | 8369 ft | 201 kts | 264° |
| 2026-04-26 18:12 | -11.50521 | -56.74267 | 8372 ft | 201 kts | 264° |
| 2026-04-26 18:13 | -11.50670 | -56.75671 | 8369 ft | 201 kts | 264° |
| 2026-04-26 18:13 | -11.50819 | -56.77086 | 8374 ft | 201 kts | 264° |
| 2026-04-26 18:13 | -11.50971 | -56.78520 | 8376 ft | 205 kts | 264° |
| 2026-04-26 18:13 | -11.51074 | -56.79500 | 8372 ft | 206 kts | 264° |
| 2026-04-26 18:14 | -11.51273 | -56.81413 | 8371 ft | 204 kts | 264° |
| 2026-04-26 18:14 | -11.51424 | -56.82846 | 8375 ft | 202 kts | 264° |
| 2026-04-26 18:14 | -11.51574 | -56.84267 | 8372 ft | 202 kts | 264° |
| 2026-04-26 18:14 | -11.51726 | -56.85701 | 8373 ft | 202 kts | 264° |
| 2026-04-26 18:15 | -11.51874 | -56.87106 | 8371 ft | 202 kts | 265° |
| 2026-04-26 18:15 | -11.52022 | -56.88527 | 8369 ft | 202 kts | 265° |
| 2026-04-26 18:15 | -11.52172 | -56.89946 | 8370 ft | 202 kts | 264° |
| 2026-04-26 18:15 | -11.52323 | -56.91369 | 8370 ft | 202 kts | 265° |
| 2026-04-26 18:16 | -11.52469 | -56.92793 | 8372 ft | 202 kts | 264° |
| 2026-04-26 18:16 | -11.52769 | -56.95647 | 8387 ft | 203 kts | 264° |
| 2026-04-26 18:16 | -11.52919 | -56.97075 | 8376 ft | 204 kts | 265° |
| 2026-04-26 18:17 | -11.53068 | -56.98519 | 8380 ft | 203 kts | 265° |
| 2026-04-26 18:17 | -11.53219 | -56.99949 | 8378 ft | 203 kts | 264° |
| 2026-04-26 18:17 | -11.53369 | -57.01381 | 8377 ft | 203 kts | 265° |
| 2026-04-26 18:17 | -11.53492 | -57.02816 | 8377 ft | 203 kts | 270° |
| 2026-04-26 18:18 | -11.53524 | -57.04258 | 8382 ft | 204 kts | 269° |
| 2026-04-26 18:18 | -11.53587 | -57.05714 | 8386 ft | 206 kts | 268° |
| 2026-04-26 18:18 | -11.53643 | -57.07169 | 8380 ft | 205 kts | 269° |
| 2026-04-26 18:18 | -11.53695 | -57.08619 | 8378 ft | 204 kts | 269° |
| 2026-04-26 18:19 | -11.53746 | -57.10065 | 8381 ft | 205 kts | 269° |
| 2026-04-26 18:19 | -11.53795 | -57.11516 | 8379 ft | 204 kts | 269° |
| 2026-04-26 18:19 | -11.53849 | -57.12967 | 8389 ft | 206 kts | 268° |
| 2026-04-26 18:19 | -11.53902 | -57.14423 | 8376 ft | 205 kts | 269° |
| 2026-04-26 18:20 | -11.53953 | -57.15881 | 8385 ft | 207 kts | 269° |
| 2026-04-26 18:20 | -11.54005 | -57.17351 | 8388 ft | 208 kts | 269° |
| 2026-04-26 18:20 | -11.54054 | -57.18823 | 8378 ft | 208 kts | 269° |
| 2026-04-26 18:20 | -11.54067 | -57.19299 | 8385 ft | 207 kts | 269° |
| 2026-04-26 18:21 | -11.54164 | -57.21757 | 8382 ft | 208 kts | 269° |
| 2026-04-26 18:21 | -11.54216 | -57.23236 | 8387 ft | 209 kts | 269° |
| 2026-04-26 18:21 | -11.54267 | -57.24698 | 8380 ft | 208 kts | 269° |
| 2026-04-26 18:21 | -11.54316 | -57.26163 | 8377 ft | 206 kts | 269° |
| 2026-04-26 18:22 | -11.54365 | -57.27614 | 8377 ft | 204 kts | 269° |
| 2026-04-26 18:22 | -11.54418 | -57.29061 | 8373 ft | 204 kts | 269° |
| 2026-04-26 18:22 | -11.54469 | -57.30501 | 8374 ft | 203 kts | 269° |
| 2026-04-26 18:22 | -11.54517 | -57.31938 | 8379 ft | 203 kts | 270° |
| 2026-04-26 18:23 | -11.54504 | -57.33375 | 8369 ft | 202 kts | 273° |
| 2026-04-26 18:23 | -11.54467 | -57.34810 | 8374 ft | 203 kts | 272° |
| 2026-04-26 18:23 | -11.54450 | -57.36251 | 8372 ft | 203 kts | 272° |
| 2026-04-26 18:23 | -11.54437 | -57.37689 | 8377 ft | 204 kts | 272° |
| 2026-04-26 18:24 | -11.54424 | -57.39137 | 8378 ft | 204 kts | 272° |
| 2026-04-26 18:24 | -11.54407 | -57.40582 | 8380 ft | 204 kts | 272° |
| 2026-04-26 18:24 | -11.54393 | -57.42039 | 8384 ft | 206 kts | 272° |
| 2026-04-26 18:24 | -11.54377 | -57.43507 | 8379 ft | 207 kts | 272° |
| 2026-04-26 18:25 | -11.54361 | -57.44968 | 8378 ft | 205 kts | 272° |
| 2026-04-26 18:25 | -11.54345 | -57.46415 | 8379 ft | 204 kts | 272° |
| 2026-04-26 18:25 | -11.54330 | -57.47852 | 8376 ft | 202 kts | 272° |
| 2026-04-26 18:25 | -11.54315 | -57.49291 | 8382 ft | 204 kts | 272° |
| 2026-04-26 18:26 | -11.54298 | -57.50746 | 8378 ft | 205 kts | 272° |
| 2026-04-26 18:26 | -11.54282 | -57.52201 | 8381 ft | 205 kts | 272° |
| 2026-04-26 18:26 | -11.54268 | -57.53633 | 8379 ft | 204 kts | 272° |
| 2026-04-26 18:26 | -11.54250 | -57.55079 | 8379 ft | 203 kts | 272° |
| 2026-04-26 18:27 | -11.54234 | -57.56518 | 8377 ft | 203 kts | 272° |
| 2026-04-26 18:27 | -11.54157 | -57.57950 | 8371 ft | 202 kts | 278° |
| 2026-04-26 18:27 | -11.53962 | -57.59365 | 8371 ft | 202 kts | 279° |
| 2026-04-26 18:27 | -11.53795 | -57.60786 | 8373 ft | 203 kts | 278° |
| 2026-04-26 18:28 | -11.53647 | -57.62222 | 8371 ft | 204 kts | 278° |
| 2026-04-26 18:28 | -11.53496 | -57.63662 | 8380 ft | 204 kts | 278° |
| 2026-04-26 18:28 | -11.53344 | -57.65096 | 8376 ft | 203 kts | 278° |
| 2026-04-26 18:28 | -11.53246 | -57.66044 | 8379 ft | 203 kts | 277° |
| 2026-04-26 18:29 | -11.53094 | -57.67472 | 8379 ft | 202 kts | 278° |
| 2026-04-26 18:29 | -11.52891 | -57.69379 | 8377 ft | 202 kts | 278° |
| 2026-04-26 18:29 | -11.52792 | -57.70323 | 8375 ft | 202 kts | 278° |
| 2026-04-26 18:29 | -11.52640 | -57.71746 | 8373 ft | 202 kts | 278° |
| 2026-04-26 18:30 | -11.52441 | -57.73631 | 8376 ft | 202 kts | 278° |
| 2026-04-26 18:30 | -11.52289 | -57.75055 | 8374 ft | 202 kts | 278° |
| 2026-04-26 18:30 | -11.52187 | -57.76017 | 8376 ft | 201 kts | 278° |
| 2026-04-26 18:30 | -11.52039 | -57.77419 | 8372 ft | 201 kts | 278° |
| 2026-04-26 18:31 | -11.51885 | -57.78853 | 8374 ft | 201 kts | 278° |
| 2026-04-26 18:31 | -11.51738 | -57.80258 | 8380 ft | 203 kts | 278° |
| 2026-04-26 18:31 | -11.51585 | -57.81684 | 8374 ft | 202 kts | 278° |
| 2026-04-26 18:31 | -11.51434 | -57.83107 | 8382 ft | 202 kts | 278° |
| 2026-04-26 18:32 | -11.51282 | -57.84540 | 8380 ft | 204 kts | 278° |
| 2026-04-26 18:32 | -11.51126 | -57.85974 | 8377 ft | 203 kts | 278° |
| 2026-04-26 18:32 | -11.50974 | -57.87404 | 8384 ft | 203 kts | 278° |
| 2026-04-26 18:32 | -11.50824 | -57.88844 | 8377 ft | 204 kts | 278° |
| 2026-04-26 18:33 | -11.50672 | -57.90280 | 8382 ft | 203 kts | 278° |
| 2026-04-26 18:33 | -11.50517 | -57.91713 | 8383 ft | 203 kts | 278° |
| 2026-04-26 18:33 | -11.50364 | -57.93138 | 8381 ft | 202 kts | 278° |
| 2026-04-26 18:33 | -11.50212 | -57.94562 | 8393 ft | 203 kts | 278° |
| 2026-04-26 18:34 | -11.50058 | -57.96006 | 8383 ft | 205 kts | 278° |
| 2026-04-26 18:34 | -11.49905 | -57.97445 | 8389 ft | 204 kts | 278° |
| 2026-04-26 18:34 | -11.49749 | -57.98896 | 8381 ft | 207 kts | 278° |
| 2026-04-26 18:34 | -11.49593 | -58.00344 | 8385 ft | 205 kts | 278° |
| 2026-04-26 18:35 | -11.49438 | -58.01789 | 8380 ft | 204 kts | 278° |
| 2026-04-26 18:35 | -11.49286 | -58.03228 | 8388 ft | 205 kts | 278° |
| 2026-04-26 18:35 | -11.49131 | -58.04677 | 8380 ft | 205 kts | 278° |
| 2026-04-26 18:35 | -11.48977 | -58.06104 | 8378 ft | 203 kts | 278° |
| 2026-04-26 18:36 | -11.48823 | -58.07538 | 8379 ft | 202 kts | 278° |
| 2026-04-26 18:36 | -11.48674 | -58.08949 | 8382 ft | 204 kts | 278° |
| 2026-04-26 18:36 | -11.48513 | -58.10408 | 8375 ft | 204 kts | 278° |
| 2026-04-26 18:36 | -11.48361 | -58.11844 | 8377 ft | 203 kts | 278° |
| 2026-04-26 18:37 | -11.48211 | -58.13253 | 8374 ft | 202 kts | 278° |
| 2026-04-26 18:37 | -11.48055 | -58.14693 | 8375 ft | 201 kts | 278° |
| 2026-04-26 18:37 | -11.47904 | -58.16095 | 8377 ft | 201 kts | 278° |
| 2026-04-26 18:37 | -11.47752 | -58.17516 | 8374 ft | 201 kts | 278° |
| 2026-04-26 18:38 | -11.47598 | -58.18929 | 8374 ft | 201 kts | 278° |
| 2026-04-26 18:38 | -11.47447 | -58.20349 | 8375 ft | 201 kts | 278° |
| 2026-04-26 18:38 | -11.47294 | -58.21766 | 8374 ft | 201 kts | 278° |
| 2026-04-26 18:38 | -11.47141 | -58.23184 | 8374 ft | 201 kts | 278° |
| 2026-04-26 18:39 | -11.46988 | -58.24604 | 8374 ft | 201 kts | 278° |
| 2026-04-26 18:39 | -11.46835 | -58.26021 | 8375 ft | 201 kts | 278° |
| 2026-04-26 18:39 | -11.46681 | -58.27443 | 8326 ft | 205 kts | 278° |
| 2026-04-26 18:39 | -11.46529 | -58.28871 | 8130 ft | 199 kts | 278° |
| 2026-04-26 18:40 | -11.46381 | -58.30251 | 7931 ft | 193 kts | 278° |
| 2026-04-26 18:40 | -11.46234 | -58.31601 | 7728 ft | 190 kts | 278° |
| 2026-04-26 18:40 | -11.46091 | -58.32928 | 7530 ft | 188 kts | 278° |
| 2026-04-26 18:40 | -11.45996 | -58.33802 | 7405 ft | 187 kts | 278° |
| 2026-04-26 18:41 | -11.45942 | -58.34303 | 7333 ft | 186 kts | 278° |
| 2026-04-26 18:41 | -11.45799 | -58.35615 | 7143 ft | 186 kts | 278° |
| 2026-04-26 18:41 | -11.45657 | -58.36926 | 6958 ft | 186 kts | 278° |
| 2026-04-26 18:41 | -11.45519 | -58.38235 | 6770 ft | 186 kts | 278° |
| 2026-04-26 18:42 | -11.45371 | -58.39550 | 6585 ft | 187 kts | 279° |
| 2026-04-26 18:42 | -11.45227 | -58.40855 | 6405 ft | 188 kts | 278° |
| 2026-04-26 18:42 | -11.45085 | -58.42178 | 6214 ft | 188 kts | 278° |
| 2026-04-26 18:42 | -11.44942 | -58.43504 | 6024 ft | 187 kts | 278° |
| 2026-04-26 18:43 | -11.44799 | -58.44822 | 5827 ft | 186 kts | 279° |
| 2026-04-26 18:43 | -11.44657 | -58.46132 | 5634 ft | 186 kts | 279° |
| 2026-04-26 18:43 | -11.44513 | -58.47438 | 5442 ft | 186 kts | 278° |
| 2026-04-26 18:43 | -11.44373 | -58.48747 | 5242 ft | 185 kts | 278° |
| 2026-04-26 18:44 | -11.44232 | -58.50047 | 5053 ft | 183 kts | 279° |
| 2026-04-26 18:44 | -11.44098 | -58.51323 | 4881 ft | 182 kts | 278° |
| 2026-04-26 18:44 | -11.43959 | -58.52609 | 4709 ft | 185 kts | 279° |
| 2026-04-26 18:44 | -11.43805 | -58.53921 | 4515 ft | 186 kts | 279° |
| 2026-04-26 18:45 | -11.43666 | -58.55247 | 4328 ft | 190 kts | 279° |
| 2026-04-26 18:45 | -11.43515 | -58.56590 | 4124 ft | 190 kts | 279° |
| 2026-04-26 18:45 | -11.43372 | -58.57922 | 3948 ft | 188 kts | 278° |
| 2026-04-26 18:45 | -11.43234 | -58.59235 | 3712 ft | 186 kts | 277° |
| 2026-04-26 18:46 | -11.43092 | -58.60529 | 3474 ft | 181 kts | 279° |
| 2026-04-26 18:46 | -11.42952 | -58.61765 | 3239 ft | 171 kts | 277° |
| 2026-04-26 18:46 | -11.42829 | -58.62967 | 2989 ft | 170 kts | 278° |
| 2026-04-26 18:46 | -11.42694 | -58.64157 | 2724 ft | 169 kts | 277° |
| 2026-04-26 18:47 | -11.42577 | -58.65329 | 2486 ft | 165 kts | 277° |
| 2026-04-26 18:47 | -11.42438 | -58.66478 | 2220 ft | 162 kts | 279° |
| 2026-04-26 18:47 | -11.42306 | -58.67612 | 2094 ft | 155 kts | 277° |
| 2026-04-26 18:47 | -11.42303 | -58.68680 | 2065 ft | 147 kts | 258° |
| 2026-04-26 18:48 | -11.42504 | -58.69648 | 2072 ft | 135 kts | 261° |
| 2026-04-26 18:48 | -11.42692 | -58.70557 | 2129 ft | 128 kts | 256° |
| 2026-04-26 18:48 | -11.43069 | -58.71389 | 1997 ft | 137 kts | 222° |
| 2026-04-26 18:48 | -11.43947 | -58.71722 | 1905 ft | 131 kts | 174° |
| 2026-04-26 18:49 | -11.44808 | -58.71652 | 1952 ft | 124 kts | 167° |
| 2026-04-26 18:49 | -11.45705 | -58.71480 | 1932 ft | 132 kts | 168° |
| 2026-04-26 18:49 | -11.46573 | -58.71318 | 2086 ft | 125 kts | 165° |
| 2026-04-26 18:49 | -11.47381 | -58.70981 | 2120 ft | 123 kts | 143° |
| 2026-04-26 18:50 | -11.47863 | -58.70276 | 2001 ft | 123 kts | 94° |
| 2026-04-26 18:50 | -11.47526 | -58.69546 | 1914 ft | 122 kts | 28° |
| 2026-04-26 18:50 | -11.46698 | -58.69658 | 1763 ft | 134 kts | 329° |
| 2026-04-26 18:50 | -11.45966 | -58.70137 | 1711 ft | 115 kts | 345° |
| 2026-04-26 18:51 | -11.45178 | -58.70328 | 1646 ft | 117 kts | 354° |
| 2026-04-26 18:51 | -11.44402 | -58.70481 | 1373 ft | 111 kts | 349° |
| 2026-04-26 18:51 | -11.43721 | -58.70599 | 1247 ft | 96 kts | 352° |
| 2026-04-26 18:51 | -11.43054 | -58.70742 | 1125 ft | 97 kts | 350° |
| 2026-04-26 18:52 | -11.42473 | -58.70875 | 1070 ft | 72 kts | 349° |
| 2026-04-26 18:52 | -11.42205 | -58.70935 | 1070 ft | 51 kts | 347° |
| 2026-04-26 18:52 | -11.41842 | -58.71013 | 1070 ft | 25 kts | 21° |
| 2026-04-26 18:52 | -11.41806 | -58.70942 | 1069 ft | 10 kts | 77° |
| 2026-04-26 18:53 | -11.41799 | -58.70890 | 1068 ft | 5 kts | 158° |
| 2026-04-26 18:53 | -11.41826 | -58.70884 | 1068 ft | 5 kts | 174° |
| 2026-04-26 18:53 | -11.41824 | -58.70866 | 1068 ft | 0 kts | 342° |